Time;durP1;ratioP1;P1;durP2;ratioP2;P2;SDS_P1;SDS_P2;PMS_P1;PMS_P2;Temp;Humidity;BMP_temperature;BMP_pressure;BME280_temperature;BME280_humidity;BME280_pressure;Samples;Min_cycle;Max_cycle;Signal;HPM_P1;HPM_P2
2020/12/26 05:01:41;;;;;;;24.53;13.40;;;2.10;99.90;;;;;;5409579;23;20463;-64
2020/12/26 05:04:09;;;;;;;16.67;12.17;;;2.20;99.90;;;;;;4977847;28;20459;-63
2020/12/26 05:06:47;;;;;;;19.40;13.73;;;2.20;99.90;;;;;;4977771;28;20537;-65
2020/12/26 05:09:15;;;;;;;20.13;13.17;;;2.20;99.90;;;;;;4977802;28;20470;-65
2020/12/26 05:11:49;;;;;;;15.73;12.33;;;2.30;99.90;;;;;;4977731;28;20573;-65
2020/12/26 05:14:17;;;;;;;17.23;13.50;;;2.30;99.90;;;;;;4977630;28;20442;-63
2020/12/26 05:16:44;;;;;;;15.40;13.00;;;2.30;99.90;;;;;;4977593;28;20454;-64
2020/12/26 05:19:10;;;;;;;15.43;13.07;;;2.30;99.90;;;;;;4977419;28;20454;-63
2020/12/26 05:21:37;;;;;;;22.03;13.47;;;2.40;99.90;;;;;;4977244;28;20537;-64
2020/12/26 05:24:05;;;;;;;18.80;13.27;;;2.50;99.90;;;;;;4978166;28;20541;-65
2020/12/26 05:26:37;;;;;;;17.47;13.33;;;2.50;99.90;;;;;;4976120;28;20459;-64
2020/12/26 05:29:04;;;;;;;22.67;14.87;;;2.40;99.90;;;;;;4977214;28;20478;-64
2020/12/26 05:31:49;;;;;;;18.87;12.20;;;2.50;99.90;;;;;;4977173;28;20532;-65
2020/12/26 05:34:15;;;;;;;22.23;14.10;;;2.50;99.90;;;;;;4977424;28;20801;-65
2020/12/26 05:36:42;;;;;;;20.70;13.70;;;2.50;99.90;;;;;;4977145;28;20513;-65
2020/12/26 05:39:11;;;;;;;17.10;13.80;;;2.60;99.90;;;;;;4977017;28;20471;-64
2020/12/26 05:41:42;;;;;;;18.90;13.57;;;2.50;99.90;;;;;;4977041;28;20475;-65
2020/12/26 05:44:09;;;;;;;23.20;13.40;;;2.40;99.90;;;;;;4977119;28;20439;-63
2020/12/26 05:46:35;;;;;;;21.00;14.40;;;2.20;99.90;;;;;;4977008;28;20455;-66
2020/12/26 05:49:23;;;;;;;16.47;13.27;;;2.20;99.90;;;;;;4978062;28;20451;-64
2020/12/26 05:51:52;;;;;;;18.80;13.97;;;2.10;99.90;;;;;;4976536;28;20957;-64
2020/12/26 05:54:19;;;;;;;17.43;13.63;;;2.10;99.90;;;;;;4976831;28;20493;-63
2020/12/26 05:56:45;;;;;;;23.80;14.30;;;1.90;99.90;;;;;;4976634;28;20462;-65
2020/12/26 05:59:24;;;;;;;18.87;13.10;;;1.70;99.90;;;;;;4976611;28;20525;-64
2020/12/26 06:01:50;;;;;;;20.03;14.43;;;1.50;99.90;;;;;;4976617;28;21008;-64
2020/12/26 06:04:20;;;;;;;21.63;14.33;;;1.40;99.90;;;;;;4976967;28;20541;-64
2020/12/26 06:06:51;;;;;;;24.33;14.90;;;1.30;99.90;;;;;;4976441;28;20820;-64
2020/12/26 06:09:19;;;;;;;25.23;15.37;;;1.20;99.90;;;;;;4976497;28;20463;-64
2020/12/26 06:11:47;;;;;;;21.20;16.23;;;1.10;99.90;;;;;;4976379;28;20485;-63
2020/12/26 06:14:18;;;;;;;26.07;15.50;;;1.00;99.90;;;;;;4976171;28;20490;-64
2020/12/26 06:16:49;;;;;;;22.50;14.70;;;1.00;99.90;;;;;;4976431;28;20443;-64
2020/12/26 06:19:17;;;;;;;21.80;15.53;;;1.00;99.90;;;;;;4976353;28;20560;-64
2020/12/26 06:21:45;;;;;;;24.10;14.87;;;1.00;99.90;;;;;;4976279;28;20898;-64
2020/12/26 06:24:13;;;;;;;28.83;16.83;;;1.00;99.90;;;;;;4976231;28;20458;-63
2020/12/26 06:26:46;;;;;;;19.50;13.70;;;1.00;99.90;;;;;;4976225;28;20458;-64
2020/12/26 06:29:16;;;;;;;22.00;14.60;;;1.10;99.90;;;;;;4976096;28;20470;-65
2020/12/26 06:31:45;;;;;;;52.87;15.20;;;1.10;99.90;;;;;;4975977;28;20505;-64
2020/12/26 06:34:12;;;;;;;20.57;13.00;;;1.10;99.90;;;;;;4976231;28;20485;-64
2020/12/26 06:36:40;;;;;;;23.70;15.00;;;1.20;99.90;;;;;;4976153;28;20474;-62
2020/12/26 06:39:28;;;;;;;27.27;15.00;;;1.20;99.90;;;;;;4975412;28;20459;-64
2020/12/26 06:42:13;;;;;;;20.57;13.30;;;1.10;99.90;;;;;;4975938;28;20493;-62
2020/12/26 06:44:40;;;;;;;20.00;13.40;;;1.10;99.90;;;;;;4975842;28;21017;-64
2020/12/26 06:47:07;;;;;;;22.13;14.13;;;1.20;99.90;;;;;;4975552;28;20451;-64
2020/12/26 06:49:33;;;;;;;23.57;14.77;;;1.20;99.90;;;;;;4975327;28;20482;-64
2020/12/26 06:52:00;;;;;;;19.40;13.37;;;1.20;99.90;;;;;;4976054;28;20845;-63
2020/12/26 06:54:41;;;;;;;25.60;13.43;;;1.10;99.90;;;;;;4975802;28;20466;-62
2020/12/26 06:57:08;;;;;;;21.63;13.93;;;1.10;99.90;;;;;;4977450;28;20505;-65
2020/12/26 06:59:36;;;;;;;25.43;14.73;;;1.20;99.90;;;;;;4976718;28;20458;-63
2020/12/26 07:02:06;;;;;;;19.20;12.70;;;1.20;99.90;;;;;;4975664;28;20486;-63
2020/12/26 07:04:40;;;;;;;24.37;15.40;;;1.20;99.90;;;;;;4975612;28;20821;-62
2020/12/26 07:07:07;;;;;;;23.10;14.80;;;1.30;99.90;;;;;;4975479;28;20517;-64
2020/12/26 07:09:47;;;;;;;18.70;13.83;;;1.30;99.90;;;;;;4975435;28;20467;-64
2020/12/26 07:12:14;;;;;;;28.73;15.00;;;1.40;99.90;;;;;;4975282;28;20506;-64
2020/12/26 07:14:42;;;;;;;25.57;15.97;;;1.50;99.90;;;;;;4975455;28;20454;-62
2020/12/26 07:17:24;;;;;;;21.10;15.07;;;1.50;99.90;;;;;;4975275;28;20466;-64
2020/12/26 07:19:51;;;;;;;23.13;14.93;;;1.50;99.90;;;;;;4975240;28;20471;-64
2020/12/26 07:22:21;;;;;;;27.03;15.33;;;1.50;99.90;;;;;;4975136;28;20537;-63
2020/12/26 07:24:50;;;;;;;23.37;15.43;;;1.60;99.90;;;;;;4976121;28;20466;-63
2020/12/26 07:27:27;;;;;;;34.23;17.37;;;1.50;99.90;;;;;;4977884;28;20922;-62
2020/12/26 07:30:08;;;;;;;25.57;16.10;;;1.50;99.90;;;;;;4978999;28;20479;-64
2020/12/26 07:32:57;;;;;;;26.97;16.17;;;1.50;99.90;;;;;;4978162;28;20541;-63
2020/12/26 07:35:41;;;;;;;22.27;15.80;;;1.50;99.90;;;;;;4974932;28;20438;-63
2020/12/26 07:38:10;;;;;;;21.40;15.53;;;1.60;99.90;;;;;;4975221;28;20435;-64
2020/12/26 07:40:38;;;;;;;23.37;16.50;;;1.70;99.90;;;;;;4974888;28;20466;-64
2020/12/26 07:43:08;;;;;;;27.07;15.30;;;1.70;99.90;;;;;;4975023;28;20457;-62
2020/12/26 07:45:34;;;;;;;23.73;16.20;;;1.70;99.90;;;;;;4974811;28;20900;-64
2020/12/26 07:48:02;;;;;;;25.20;16.77;;;1.70;99.90;;;;;;4974890;28;20454;-65
2020/12/26 07:50:30;;;;;;;23.80;16.80;;;1.60;99.90;;;;;;4974090;28;20486;-62
2020/12/26 07:52:57;;;;;;;24.30;18.13;;;1.70;99.90;;;;;;4974691;28;20459;-64
2020/12/26 07:55:26;;;;;;;21.47;16.17;;;2.00;99.90;;;;;;4974731;28;20459;-63
2020/12/26 07:58:00;;;;;;;20.67;14.73;;;2.10;99.90;;;;;;4974475;28;20471;-63
2020/12/26 08:00:29;;;;;;;20.87;14.00;;;2.50;99.90;;;;;;4974190;28;20469;-64
2020/12/26 08:02:56;;;;;;;18.93;13.97;;;3.00;99.90;;;;;;4974633;28;20513;-64
2020/12/26 08:05:24;;;;;;;18.70;12.37;;;3.40;99.90;;;;;;4974587;28;20455;-62
2020/12/26 08:07:51;;;;;;;15.40;12.27;;;3.70;99.90;;;;;;4974744;28;20481;-64
2020/12/26 08:10:18;;;;;;;26.87;14.50;;;3.60;99.90;;;;;;4974408;28;20841;-63
2020/12/26 08:12:52;;;;;;;17.03;13.30;;;3.60;99.90;;;;;;4974653;28;20459;-62
2020/12/26 08:15:22;;;;;;;15.20;12.60;;;3.60;99.90;;;;;;4974629;28;20449;-63
2020/12/26 08:17:52;;;;;;;16.80;13.20;;;3.60;99.90;;;;;;4974496;28;20773;-64
2020/12/26 08:20:20;;;;;;;14.63;12.27;;;3.60;99.90;;;;;;4975257;28;20435;-63
2020/12/26 08:22:46;;;;;;;16.90;13.83;;;3.90;99.90;;;;;;4974605;28;20854;-63
2020/12/26 08:25:12;;;;;;;16.90;11.83;;;3.80;99.90;;;;;;4974438;28;20466;-63
2020/12/26 08:27:39;;;;;;;17.87;12.80;;;3.80;99.90;;;;;;4974503;28;20478;-63
2020/12/26 08:30:07;;;;;;;17.23;12.57;;;4.00;99.90;;;;;;4974418;28;20485;-62
2020/12/26 08:32:41;;;;;;;19.43;13.87;;;3.90;99.90;;;;;;4974724;28;20485;-62
2020/12/26 08:35:11;;;;;;;19.70;13.87;;;3.90;99.90;;;;;;4974159;28;20775;-63
2020/12/26 08:37:41;;;;;;;19.53;14.80;;;4.00;99.90;;;;;;4974389;28;20914;-64
2020/12/26 08:40:13;;;;;;;18.40;13.17;;;3.90;99.90;;;;;;4974246;28;20458;-63
2020/12/26 08:42:40;;;;;;;18.07;12.70;;;3.80;99.90;;;;;;4974985;28;20842;-64
2020/12/26 08:45:28;;;;;;;16.83;13.53;;;4.40;99.90;;;;;;4974217;28;20463;-63
2020/12/26 08:47:58;;;;;;;15.50;12.53;;;5.30;99.90;;;;;;4974379;28;20438;-62
2020/12/26 08:50:25;;;;;;;15.43;12.63;;;5.90;99.90;;;;;;4974157;28;20466;-62
2020/12/26 08:53:03;;;;;;;15.20;11.77;;;7.10;99.90;;;;;;4974239;28;20461;-64
2020/12/26 08:55:29;;;;;;;17.03;11.20;;;7.70;99.90;;;;;;4974177;28;20438;-62
2020/12/26 08:57:59;;;;;;;13.30;11.60;;;7.80;99.90;;;;;;4974408;28;20459;-63
2020/12/26 09:00:27;;;;;;;14.43;12.17;;;8.00;99.90;;;;;;4974278;28;20501;-62
2020/12/26 09:02:55;;;;;;;19.23;12.93;;;7.90;99.90;;;;;;4978060;28;20442;-63
2020/12/26 09:05:23;;;;;;;15.60;11.70;;;7.70;99.90;;;;;;4977840;28;20454;-63
2020/12/26 09:08:00;;;;;;;14.77;12.77;;;7.30;99.90;;;;;;4977767;28;20454;-62
2020/12/26 09:10:26;;;;;;;13.53;12.13;;;6.80;99.90;;;;;;4977557;28;20473;-63
2020/12/26 09:13:00;;;;;;;14.47;12.33;;;6.40;99.90;;;;;;4977800;28;20536;-64
2020/12/26 09:15:26;;;;;;;17.43;12.73;;;6.10;99.90;;;;;;4977713;28;20458;-62
2020/12/26 09:17:52;;;;;;;15.20;12.20;;;6.00;99.90;;;;;;4978082;28;20459;-63
2020/12/26 09:20:19;;;;;;;14.63;11.33;;;5.80;99.90;;;;;;4977422;28;20450;-63
2020/12/26 09:22:45;;;;;;;15.60;12.63;;;5.80;99.90;;;;;;4977614;28;20846;-61
2020/12/26 09:25:23;;;;;;;13.57;11.30;;;5.50;99.90;;;;;;4977615;28;20454;-61
2020/12/26 09:28:02;;;;;;;17.10;13.33;;;5.10;99.90;;;;;;4978001;28;20449;-63
2020/12/26 09:30:28;;;;;;;16.10;12.03;;;5.00;99.90;;;;;;4977466;28;20462;-61
2020/12/26 09:32:55;;;;;;;16.70;12.60;;;4.80;99.90;;;;;;4977451;28;20484;-61
2020/12/26 09:35:22;;;;;;;15.13;12.90;;;4.70;99.90;;;;;;4977448;28;20803;-62
2020/12/26 09:37:52;;;;;;;15.43;12.07;;;4.60;99.90;;;;;;4977534;28;20450;-63
2020/12/26 09:40:19;;;;;;;18.80;13.03;;;4.60;99.90;;;;;;4977324;28;20461;-61
2020/12/26 09:42:51;;;;;;;16.13;12.80;;;4.50;99.90;;;;;;4977254;28;20497;-64
2020/12/26 09:45:17;;;;;;;15.80;11.27;;;4.50;99.90;;;;;;4977150;28;20443;-62
2020/12/26 09:47:43;;;;;;;17.03;12.43;;;4.30;99.90;;;;;;4977038;28;20461;-62
2020/12/26 09:50:10;;;;;;;19.60;11.47;;;4.20;99.90;;;;;;4977146;28;20475;-63
2020/12/26 09:52:38;;;;;;;15.20;11.90;;;4.20;99.90;;;;;;4976781;28;20474;-62
2020/12/26 09:55:04;;;;;;;14.53;12.53;;;4.20;99.90;;;;;;4977727;28;20462;-63
2020/12/26 09:57:30;;;;;;;19.37;12.87;;;4.30;99.90;;;;;;4976764;28;20445;-62
2020/12/26 09:59:56;;;;;;;16.30;12.67;;;4.30;99.90;;;;;;4976842;28;20462;-63
2020/12/26 10:02:22;;;;;;;17.73;13.23;;;4.30;99.90;;;;;;4976315;28;20475;-63
2020/12/26 10:04:49;;;;;;;18.07;12.80;;;4.30;99.90;;;;;;4976578;28;20827;-62
2020/12/26 10:07:18;;;;;;;17.20;12.57;;;4.50;99.90;;;;;;4976776;28;20459;-62
2020/12/26 10:09:45;;;;;;;14.50;11.40;;;4.40;99.90;;;;;;4976327;28;20475;-63
2020/12/26 10:12:11;;;;;;;18.80;12.90;;;4.40;99.90;;;;;;4975960;28;20475;-63
2020/12/26 10:14:37;;;;;;;16.13;12.20;;;4.40;99.90;;;;;;4976151;28;20818;-63
2020/12/26 10:17:04;;;;;;;17.33;12.07;;;4.30;99.90;;;;;;4976490;28;20459;-62
2020/12/26 10:19:32;;;;;;;15.40;11.37;;;4.40;99.90;;;;;;4976501;28;20455;-62
2020/12/26 10:21:58;;;;;;;14.77;11.47;;;4.60;99.90;;;;;;4976513;28;20483;-62
2020/12/26 10:24:24;;;;;;;15.47;11.43;;;4.40;99.90;;;;;;4976697;28;20451;-63
2020/12/26 10:26:51;;;;;;;17.67;11.67;;;4.50;99.90;;;;;;4978804;28;20461;-63
2020/12/26 10:29:17;;;;;;;14.87;11.23;;;4.50;99.90;;;;;;4978312;28;20494;-63
2020/12/26 10:31:43;;;;;;;12.83;11.33;;;4.70;99.90;;;;;;4976307;28;20474;-62
2020/12/26 10:34:09;;;;;;;15.00;10.77;;;4.60;99.90;;;;;;4976062;28;20451;-63
2020/12/26 10:36:41;;;;;;;16.20;12.20;;;4.80;99.90;;;;;;4975819;28;21019;-63
2020/12/26 10:39:07;;;;;;;14.30;10.47;;;4.60;99.90;;;;;;4976177;28;20861;-62
2020/12/26 10:41:33;;;;;;;12.40;10.80;;;4.80;99.90;;;;;;4976413;28;20541;-64
2020/12/26 10:44:00;;;;;;;19.77;11.43;;;4.70;99.90;;;;;;4976288;28;20466;-63
2020/12/26 10:46:27;;;;;;;16.20;11.70;;;4.90;99.90;;;;;;4975782;28;20958;-63
2020/12/26 10:48:53;;;;;;;14.70;10.73;;;4.80;99.90;;;;;;4985560;28;20458;-63
2020/12/26 10:51:19;;;;;;;12.97;10.70;;;5.00;99.90;;;;;;4992468;28;20826;-63
2020/12/26 10:53:46;;;;;;;17.00;11.90;;;5.00;99.90;;;;;;4994279;28;20462;-63
2020/12/26 10:56:12;;;;;;;16.67;11.03;;;4.90;99.90;;;;;;4987681;28;20501;-62
2020/12/26 10:58:38;;;;;;;15.37;11.70;;;5.00;99.90;;;;;;4984698;28;20452;-64
2020/12/26 11:01:05;;;;;;;18.03;11.50;;;5.10;99.90;;;;;;4978018;28;20478;-64
2020/12/26 11:03:31;;;;;;;15.13;10.90;;;5.00;99.90;;;;;;4978012;28;20465;-62
2020/12/26 11:05:59;;;;;;;13.20;11.00;;;5.20;99.90;;;;;;4977681;28;20454;-64
2020/12/26 11:08:26;;;;;;;13.50;11.13;;;5.20;99.90;;;;;;4976727;28;20455;-64
2020/12/26 11:10:52;;;;;;;14.00;10.80;;;5.10;99.90;;;;;;4975215;28;21053;-63
2020/12/26 11:13:19;;;;;;;12.73;9.67;;;5.20;99.90;;;;;;4975508;28;20454;-63
2020/12/26 11:15:45;;;;;;;15.40;10.57;;;5.20;99.90;;;;;;4975544;28;20448;-64
2020/12/26 11:18:12;;;;;;;15.07;10.10;;;5.30;99.90;;;;;;4975338;28;20455;-63
2020/12/26 11:20:38;;;;;;;13.80;9.90;;;5.30;99.90;;;;;;4975404;28;20481;-64
2020/12/26 11:23:04;;;;;;;10.70;8.23;;;5.30;99.90;;;;;;4975273;28;20439;-63
2020/12/26 11:25:31;;;;;;;11.63;9.03;;;5.40;99.90;;;;;;4974300;28;20914;-64
2020/12/26 11:27:57;;;;;;;9.90;8.93;;;5.30;99.90;;;;;;4975124;28;20505;-61
2020/12/26 11:30:23;;;;;;;11.40;9.33;;;5.40;99.90;;;;;;4974889;28;20482;-64
2020/12/26 11:32:49;;;;;;;12.30;9.77;;;5.50;99.90;;;;;;4975239;28;20856;-63
2020/12/26 11:35:16;;;;;;;8.13;7.23;;;5.60;99.90;;;;;;4975035;28;20449;-64
2020/12/26 11:37:42;;;;;;;11.37;9.10;;;5.60;99.90;;;;;;4974927;28;20443;-63
2020/12/26 11:40:08;;;;;;;10.23;8.77;;;5.60;99.90;;;;;;4974936;28;20443;-62
2020/12/26 11:42:38;;;;;;;8.33;7.53;;;5.70;99.90;;;;;;4974969;28;20475;-63
2020/12/26 11:45:05;;;;;;;10.83;8.40;;;5.70;99.90;;;;;;4974943;28;20798;-63
2020/12/26 11:47:32;;;;;;;9.73;8.50;;;5.80;99.90;;;;;;4974819;28;20501;-62
2020/12/26 11:49:58;;;;;;;10.33;8.40;;;5.70;99.90;;;;;;4974476;28;20969;-62
2020/12/26 11:52:25;;;;;;;8.53;7.70;;;5.80;99.90;;;;;;4975042;28;20532;-63
2020/12/26 11:54:52;;;;;;;9.30;8.30;;;5.90;99.90;;;;;;4974466;28;20827;-63
2020/12/26 11:57:18;;;;;;;9.20;8.40;;;6.10;99.90;;;;;;4974799;28;20458;-64
2020/12/26 11:59:44;;;;;;;8.97;8.13;;;6.20;99.90;;;;;;4974697;28;20517;-64
2020/12/26 12:02:12;;;;;;;10.13;8.50;;;6.30;99.90;;;;;;4974427;28;20482;-62
2020/12/26 12:04:38;;;;;;;9.77;8.87;;;6.50;99.90;;;;;;4974397;28;20513;-63
2020/12/26 12:07:04;;;;;;;8.27;7.47;;;6.50;99.90;;;;;;4974801;28;20455;-63
2020/12/26 12:09:31;;;;;;;10.30;5.80;;;6.60;99.90;;;;;;4974694;28;20465;-64
2020/12/26 12:11:57;;;;;;;9.63;6.30;;;6.60;99.90;;;;;;4974511;28;20475;-62
2020/12/26 12:14:24;;;;;;;7.27;5.90;;;6.60;99.90;;;;;;4974672;28;20443;-63
2020/12/26 12:16:50;;;;;;;7.10;6.40;;;6.80;99.90;;;;;;4980317;28;20513;-63
2020/12/26 12:19:16;;;;;;;8.40;7.40;;;6.80;99.90;;;;;;4981716;28;20453;-62
2020/12/26 12:21:44;;;;;;;7.37;6.67;;;6.90;99.90;;;;;;4980498;28;20509;-63
2020/12/26 12:24:10;;;;;;;8.00;7.20;;;6.90;99.90;;;;;;4975304;28;20461;-62
2020/12/26 12:26:37;;;;;;;7.83;6.30;;;6.90;99.90;;;;;;4974710;28;20458;-64
2020/12/26 12:29:03;;;;;;;6.87;6.20;;;6.80;99.90;;;;;;4974504;28;20509;-64
2020/12/26 12:31:36;;;;;;;7.10;6.40;;;6.80;99.90;;;;;;4973989;28;20490;-63
2020/12/26 12:34:03;;;;;;;9.10;6.20;;;6.90;99.90;;;;;;4974684;28;20438;-64
2020/12/26 12:36:29;;;;;;;5.87;5.37;;;6.60;99.90;;;;;;4976755;28;20459;-63
2020/12/26 12:38:55;;;;;;;8.03;6.07;;;6.60;99.90;;;;;;4978288;28;20466;-64
2020/12/26 12:41:21;;;;;;;7.10;6.50;;;6.50;99.90;;;;;;4978594;28;20475;-64
2020/12/26 12:43:49;;;;;;;10.00;7.53;;;6.50;99.90;;;;;;4978321;28;20455;-65
2020/12/26 12:46:16;;;;;;;11.50;8.70;;;6.50;99.90;;;;;;4977796;28;20929;-64
2020/12/26 12:48:42;;;;;;;7.93;6.33;;;6.50;99.90;;;;;;4977989;28;20458;-64
2020/12/26 12:51:08;;;;;;;7.90;6.57;;;6.60;99.90;;;;;;4977829;28;20486;-64
2020/12/26 12:53:35;;;;;;;8.63;7.77;;;6.60;99.90;;;;;;4977948;28;20518;-64
2020/12/26 12:56:01;;;;;;;9.07;7.50;;;6.40;99.90;;;;;;4977993;28;20529;-63
2020/12/26 12:58:27;;;;;;;10.43;7.50;;;6.20;99.90;;;;;;4977783;28;20577;-62
2020/12/26 13:00:54;;;;;;;8.60;7.70;;;6.20;99.90;;;;;;4977564;28;20486;-63
2020/12/26 13:03:20;;;;;;;8.50;7.43;;;6.10;99.90;;;;;;4977906;28;20454;-63
2020/12/26 13:05:47;;;;;;;9.33;8.33;;;6.20;99.90;;;;;;4977698;28;20513;-63
2020/12/26 13:08:13;;;;;;;8.73;7.93;;;6.40;99.90;;;;;;4977609;28;20458;-63
2020/12/26 13:10:40;;;;;;;8.40;7.60;;;6.40;99.90;;;;;;4977613;28;20822;-62
2020/12/26 13:13:06;;;;;;;12.20;8.50;;;6.40;99.90;;;;;;4977714;28;20506;-64
2020/12/26 13:15:32;;;;;;;9.33;8.33;;;6.40;99.90;;;;;;4977670;28;20446;-64
2020/12/26 13:17:59;;;;;;;8.13;7.10;;;6.20;99.90;;;;;;4977301;28;20458;-62
2020/12/26 13:20:26;;;;;;;10.20;8.53;;;6.20;99.90;;;;;;4977474;28;20455;-64
2020/12/26 13:22:52;;;;;;;9.20;8.10;;;6.10;99.90;;;;;;4977442;28;20473;-62
2020/12/26 13:25:19;;;;;;;11.70;8.17;;;6.00;99.90;;;;;;4977474;28;20459;-62
2020/12/26 13:27:45;;;;;;;9.10;7.60;;;5.90;99.90;;;;;;4977010;28;20459;-63
2020/12/26 13:30:11;;;;;;;9.40;8.00;;;5.70;99.90;;;;;;4976240;28;20462;-62
2020/12/26 13:32:37;;;;;;;8.80;7.70;;;5.70;99.90;;;;;;4977159;28;20478;-62
2020/12/26 13:35:05;;;;;;;8.47;7.60;;;5.70;99.90;;;;;;4977257;28;20451;-62
2020/12/26 13:37:31;;;;;;;10.13;9.10;;;5.60;99.90;;;;;;4977209;28;20458;-62
2020/12/26 13:39:57;;;;;;;12.57;10.10;;;5.60;99.90;;;;;;4977107;28;20869;-64
2020/12/26 13:42:23;;;;;;;11.93;9.20;;;5.50;99.90;;;;;;4977078;28;20879;-63
2020/12/26 13:44:50;;;;;;;11.53;7.90;;;5.40;99.90;;;;;;4977083;28;20556;-62
2020/12/26 13:47:16;;;;;;;10.03;8.60;;;5.40;99.90;;;;;;4975673;28;20965;-64
2020/12/26 13:49:42;;;;;;;11.63;9.53;;;5.30;99.90;;;;;;4976927;28;20462;-63
2020/12/26 13:52:09;;;;;;;7.23;6.53;;;5.30;99.90;;;;;;4976829;28;20479;-63
2020/12/26 13:54:35;;;;;;;8.00;7.20;;;5.30;99.90;;;;;;4976864;28;20455;-63
2020/12/26 13:57:01;;;;;;;9.07;7.00;;;5.30;99.90;;;;;;4976611;28;20465;-63
2020/12/26 13:59:27;;;;;;;11.30;9.47;;;5.30;99.90;;;;;;4976832;28;20526;-63
2020/12/26 14:01:54;;;;;;;7.67;6.37;;;5.30;99.90;;;;;;4975867;28;20513;-62
2020/12/26 14:04:20;;;;;;;10.23;7.40;;;5.30;99.90;;;;;;4976075;28;20509;-62
2020/12/26 14:06:46;;;;;;;7.43;6.50;;;5.20;99.90;;;;;;4975993;28;20458;-62
2020/12/26 14:09:13;;;;;;;7.70;6.30;;;5.30;99.90;;;;;;4975972;28;20474;-62
2020/12/26 14:11:43;;;;;;;7.87;7.07;;;5.30;99.90;;;;;;4975585;28;20483;-62
2020/12/26 14:14:09;;;;;;;6.50;5.90;;;5.40;99.90;;;;;;4975604;28;20550;-63
2020/12/26 14:16:35;;;;;;;8.07;7.27;;;5.40;99.90;;;;;;4975562;28;20934;-63
2020/12/26 14:19:02;;;;;;;7.80;6.87;;;5.40;99.90;;;;;;4975516;28;20481;-63
2020/12/26 14:21:32;;;;;;;14.00;7.57;;;5.40;99.90;;;;;;4975090;28;20977;-63
2020/12/26 14:23:58;;;;;;;8.53;6.40;;;5.40;99.90;;;;;;4975417;28;20482;-63
2020/12/26 14:26:25;;;;;;;11.30;7.07;;;5.50;99.90;;;;;;4975322;28;20462;-63
2020/12/26 14:28:52;;;;;;;7.63;6.40;;;5.50;99.90;;;;;;4975509;28;20458;-63
2020/12/26 14:31:18;;;;;;;6.67;6.03;;;5.40;99.90;;;;;;4975397;28;20545;-62
2020/12/26 14:33:44;;;;;;;10.47;7.10;;;5.50;99.90;;;;;;4975467;28;20450;-63
2020/12/26 14:36:11;;;;;;;7.17;6.47;;;5.50;99.90;;;;;;4975252;28;20481;-63
2020/12/26 14:38:37;;;;;;;7.90;6.70;;;5.40;99.90;;;;;;4974988;28;20454;-64
2020/12/26 14:41:03;;;;;;;7.90;6.53;;;5.40;99.90;;;;;;4974935;28;20884;-62
2020/12/26 14:43:30;;;;;;;10.63;7.10;;;5.40;99.90;;;;;;4975237;28;20550;-63
2020/12/26 14:45:56;;;;;;;9.20;7.57;;;5.30;99.90;;;;;;4975069;28;20455;-63
2020/12/26 14:48:23;;;;;;;13.00;6.93;;;5.20;99.90;;;;;;4975246;28;20459;-63
2020/12/26 14:50:49;;;;;;;10.30;7.13;;;5.20;99.90;;;;;;4974626;28;20850;-63
2020/12/26 14:53:15;;;;;;;8.97;8.13;;;5.20;99.90;;;;;;4974925;28;20458;-63
2020/12/26 14:55:45;;;;;;;10.37;6.53;;;5.00;99.90;;;;;;4975052;28;20455;-62
2020/12/26 14:58:11;;;;;;;9.50;6.97;;;4.90;99.90;;;;;;4974716;28;20454;-62
2020/12/26 15:00:38;;;;;;;9.37;7.00;;;4.90;99.90;;;;;;4955861;28;543056;-63
2020/12/26 15:03:04;;;;;;;7.13;6.23;;;4.80;99.90;;;;;;4975661;28;20439;-63
2020/12/26 15:05:30;;;;;;;10.53;6.70;;;4.80;99.90;;;;;;4975279;28;20458;-62
2020/12/26 15:07:57;;;;;;;8.07;6.67;;;4.70;99.90;;;;;;4975513;28;20462;-62
2020/12/26 15:10:23;;;;;;;12.27;8.00;;;4.70;99.90;;;;;;4974991;28;20962;-63
2020/12/26 15:12:49;;;;;;;8.60;7.63;;;4.70;99.90;;;;;;4975388;28;20455;-63
2020/12/26 15:15:16;;;;;;;7.47;6.77;;;4.60;99.90;;;;;;4975438;28;20462;-63
2020/12/26 15:17:43;;;;;;;9.00;7.53;;;4.60;99.90;;;;;;4975451;28;20461;-63
2020/12/26 15:20:09;;;;;;;8.17;7.30;;;4.60;99.90;;;;;;4976132;28;20458;-63
2020/12/26 15:22:35;;;;;;;6.90;6.30;;;4.60;99.90;;;;;;4974908;28;21000;-63
2020/12/26 15:25:01;;;;;;;9.10;7.40;;;4.50;99.90;;;;;;4975248;28;20466;-62
2020/12/26 15:27:27;;;;;;;10.00;7.53;;;4.50;99.90;;;;;;4974981;28;20459;-63
2020/12/26 15:29:54;;;;;;;9.40;8.50;;;4.50;99.90;;;;;;4975058;28;20772;-64
2020/12/26 15:32:20;;;;;;;9.47;8.47;;;4.30;99.90;;;;;;4975009;28;20481;-63
2020/12/26 15:34:47;;;;;;;9.53;8.63;;;4.30;99.90;;;;;;4975079;28;20459;-64
2020/12/26 15:37:13;;;;;;;11.60;8.47;;;4.20;99.90;;;;;;4974711;28;20459;-62
2020/12/26 15:39:39;;;;;;;12.50;8.70;;;4.10;99.90;;;;;;4975251;28;20495;-62
2020/12/26 15:42:06;;;;;;;13.00;8.10;;;3.90;99.90;;;;;;4974729;28;20475;-62
2020/12/26 15:44:32;;;;;;;10.67;8.43;;;3.80;99.90;;;;;;4974804;28;20454;-64
2020/12/26 15:46:58;;;;;;;9.37;7.90;;;3.80;99.90;;;;;;4974758;28;20818;-63
2020/12/26 15:49:24;;;;;;;11.13;9.30;;;3.70;99.90;;;;;;4974825;28;20461;-63
2020/12/26 15:51:52;;;;;;;17.43;11.83;;;3.70;99.90;;;;;;4974678;28;20490;-63
2020/12/26 15:54:18;;;;;;;18.10;11.20;;;3.60;99.90;;;;;;4975032;28;20493;-62
2020/12/26 15:56:44;;;;;;;11.73;9.80;;;3.50;99.90;;;;;;4975089;28;20465;-63
2020/12/26 15:59:10;;;;;;;12.80;10.57;;;3.40;99.90;;;;;;4975857;28;20462;-62
2020/12/26 16:01:36;;;;;;;13.60;9.90;;;3.40;99.90;;;;;;4974857;28;20478;-63
2020/12/26 16:04:02;;;;;;;10.60;9.50;;;3.30;99.90;;;;;;4975284;28;20478;-62
2020/12/26 16:06:31;;;;;;;12.27;8.80;;;3.30;99.90;;;;;;4974891;28;20463;-63
2020/12/26 16:08:58;;;;;;;12.63;8.60;;;3.20;99.90;;;;;;4974597;28;20478;-63
2020/12/26 16:11:27;;;;;;;12.17;10.20;;;3.20;99.90;;;;;;4974046;28;20566;-63
2020/12/26 16:13:54;;;;;;;17.33;10.80;;;3.20;99.90;;;;;;4974858;28;20591;-61
2020/12/26 16:16:20;;;;;;;15.80;12.73;;;3.20;99.90;;;;;;4974365;28;20954;-61
2020/12/26 16:18:46;;;;;;;20.00;10.10;;;3.10;99.90;;;;;;4974700;28;20458;-63
2020/12/26 16:21:12;;;;;;;15.70;11.10;;;3.20;99.90;;;;;;4974452;28;20977;-62
2020/12/26 16:23:39;;;;;;;13.17;9.83;;;3.10;99.90;;;;;;4974575;28;20458;-62
2020/12/26 16:26:06;;;;;;;11.97;8.53;;;3.10;99.90;;;;;;4974575;28;20489;-62
2020/12/26 16:28:32;;;;;;;11.33;8.83;;;3.10;99.90;;;;;;4974267;28;20469;-63
2020/12/26 16:30:58;;;;;;;9.77;8.70;;;3.10;99.90;;;;;;4974565;28;20490;-62
2020/12/26 16:33:25;;;;;;;11.13;8.67;;;3.10;99.90;;;;;;4974549;28;20454;-63
2020/12/26 16:35:51;;;;;;;12.27;8.30;;;3.10;99.90;;;;;;4974458;28;20461;-62
2020/12/26 16:38:17;;;;;;;16.40;10.23;;;3.10;99.90;;;;;;4974589;28;20467;-62
2020/12/26 16:40:43;;;;;;;8.53;7.37;;;3.10;99.90;;;;;;4974581;28;20471;-63
2020/12/26 16:43:10;;;;;;;10.80;8.47;;;3.00;99.90;;;;;;4974192;28;20463;-61
2020/12/26 16:45:37;;;;;;;9.03;7.90;;;2.90;99.90;;;;;;4974415;28;20465;-62
2020/12/26 16:48:03;;;;;;;10.10;7.70;;;2.90;99.90;;;;;;4974198;28;20942;-62
2020/12/26 16:50:30;;;;;;;10.40;9.00;;;2.80;99.90;;;;;;4974369;28;20529;-61
2020/12/26 16:52:56;;;;;;;11.40;9.07;;;2.90;99.90;;;;;;4974484;28;20455;-61
2020/12/26 16:55:23;;;;;;;9.87;7.97;;;2.80;99.90;;;;;;4974394;28;20817;-64
2020/12/26 16:57:49;;;;;;;13.23;8.17;;;2.80;99.90;;;;;;4974264;28;20835;-63
2020/12/26 17:00:16;;;;;;;11.80;8.67;;;2.80;99.90;;;;;;4974137;28;20443;-62
2020/12/26 17:02:43;;;;;;;16.37;9.47;;;2.80;99.90;;;;;;4974222;28;20450;-63
2020/12/26 17:05:09;;;;;;;11.07;7.90;;;2.80;99.90;;;;;;4974137;28;20875;-62
2020/12/26 17:07:35;;;;;;;9.87;8.70;;;2.70;99.90;;;;;;4973924;28;20861;-62
2020/12/26 17:10:01;;;;;;;13.80;7.97;;;2.70;99.90;;;;;;4974214;28;20435;-62
2020/12/26 17:12:28;;;;;;;7.30;6.60;;;2.70;99.90;;;;;;4974095;28;20554;-63
2020/12/26 17:14:54;;;;;;;7.90;6.97;;;2.60;99.90;;;;;;4973975;28;20510;-62
2020/12/26 17:17:21;;;;;;;13.13;8.60;;;2.60;99.90;;;;;;4973994;28;20461;-62
2020/12/26 17:19:47;;;;;;;10.03;7.73;;;2.50;99.90;;;;;;4973892;28;20458;-63
2020/12/26 17:22:13;;;;;;;20.80;13.40;;;2.50;99.90;;;;;;4974887;28;20471;-62
2020/12/26 17:24:40;;;;;;;11.83;9.97;;;2.50;99.90;;;;;;4983676;28;20451;-64
2020/12/26 17:27:06;;;;;;;25.10;15.27;;;2.40;99.90;;;;;;4983495;28;20454;-63
2020/12/26 17:29:32;;;;;;;14.60;10.87;;;2.40;99.90;;;;;;4984505;28;20946;-63
2020/12/26 17:31:58;;;;;;;10.97;8.67;;;2.30;99.90;;;;;;4977493;28;20843;-63
2020/12/26 17:34:25;;;;;;;23.20;15.43;;;2.20;99.90;;;;;;4977451;28;20517;-63
2020/12/26 17:36:51;;;;;;;33.07;12.37;;;2.20;99.90;;;;;;4977303;28;20454;-63
2020/12/26 17:39:17;;;;;;;10.00;7.53;;;2.20;99.90;;;;;;4977182;28;20925;-64
2020/12/26 17:41:44;;;;;;;10.43;7.57;;;2.20;99.90;;;;;;4976724;28;20550;-63
2020/12/26 17:44:10;;;;;;;12.80;8.50;;;2.10;99.90;;;;;;4977091;28;20466;-63
2020/12/26 17:46:36;;;;;;;9.53;8.07;;;2.10;99.90;;;;;;4977482;28;20466;-64